createdAt,value
2023-03-01T01:56:53.717Z,-4.19
2023-03-01T01:59:25.414Z,-4.22
2023-03-01T02:01:53.715Z,-4.24
2023-03-01T02:04:22.226Z,-4.27
2023-03-01T02:06:57.736Z,-4.32
2023-03-01T02:09:26.265Z,-4.35
2023-03-01T02:11:55.401Z,-4.37
2023-03-01T02:14:23.352Z,-4.39
2023-03-01T02:16:52.244Z,-4.40
2023-03-01T02:19:32.271Z,-4.42
2023-03-01T02:22:08.328Z,-4.45
2023-03-01T02:24:48.358Z,-4.50
2023-03-01T02:27:18.190Z,-4.52
2023-03-01T02:29:47.616Z,-4.56
2023-03-01T02:32:16.317Z,-4.59
2023-03-01T02:34:44.289Z,-4.63
2023-03-01T02:37:15.887Z,-4.69
2023-03-01T02:39:48.870Z,-4.71
2023-03-01T02:42:22.396Z,-4.73
2023-03-01T02:44:52.580Z,-4.74
2023-03-01T02:47:20.414Z,-4.77
2023-03-01T02:49:48.292Z,-4.80
2023-03-01T02:52:36.217Z,-4.82
2023-03-01T02:55:08.377Z,-4.86
2023-03-01T02:57:39.687Z,-4.90
2023-03-01T03:00:19.978Z,-4.95
2023-03-01T03:02:50.098Z,-4.97
2023-03-01T03:05:25.224Z,-4.99
2023-03-01T03:07:57.267Z,-5.03
2023-03-01T03:10:28.714Z,-5.06
2023-03-01T03:12:58.864Z,-5.09
2023-03-01T03:15:29.925Z,-5.13
2023-03-01T03:17:59.393Z,-5.14
2023-03-01T03:20:29.605Z,-5.16
2023-03-01T03:22:59.220Z,-5.17
2023-03-01T03:25:28.134Z,-5.19
2023-03-01T03:27:57.599Z,-5.21
2023-03-01T03:30:29.212Z,-5.25
2023-03-01T03:32:57.815Z,-5.28
2023-03-01T03:35:27.370Z,-5.30
2023-03-01T03:38:04.360Z,-5.31
2023-03-01T03:40:34.462Z,-5.34
2023-03-01T03:43:02.882Z,-5.35
2023-03-01T03:45:34.319Z,-5.36
2023-03-01T03:48:02.681Z,-5.39
2023-03-01T03:50:31.088Z,-5.41
2023-03-01T03:52:58.862Z,-5.44
2023-03-01T03:55:31.412Z,-5.44
2023-03-01T03:58:03.096Z,-5.46
2023-03-01T04:00:32.276Z,-5.47
2023-03-01T04:03:00.067Z,-5.48
2023-03-01T04:05:28.715Z,-5.49
2023-03-01T04:08:02.858Z,-5.49
2023-03-01T04:10:32.129Z,-5.52
2023-03-01T04:13:00.473Z,-5.53
2023-03-01T04:15:29.080Z,-5.55
2023-03-01T04:17:59.908Z,-5.57
2023-03-01T04:20:29.539Z,-5.59
2023-03-01T04:23:01.136Z,-5.62
2023-03-01T04:25:29.017Z,-5.65
2023-03-01T04:27:59.276Z,-5.65
2023-03-01T04:30:27.150Z,-5.68
2023-03-01T04:32:54.817Z,-5.66
2023-03-01T04:35:24.152Z,-5.67
2023-03-01T04:37:52.039Z,-5.67
2023-03-01T04:40:19.918Z,-5.67
2023-03-01T04:42:48.195Z,-5.67
2023-03-01T04:45:16.211Z,-5.66
2023-03-01T04:47:46.907Z,-5.68
2023-03-01T04:50:16.770Z,-5.68
2023-03-01T04:52:46.835Z,-5.69
2023-03-01T04:55:15.557Z,-5.70
2023-03-01T04:57:44.228Z,-5.73
2023-03-01T05:00:22.118Z,-5.76
2023-03-01T05:02:54.220Z,-5.79
2023-03-01T05:05:28.832Z,-5.81
2023-03-01T05:08:00.447Z,-5.82
2023-03-01T05:10:31.211Z,-5.85
2023-03-01T05:12:59.880Z,-5.86
2023-03-01T05:15:28.755Z,-5.90
2023-03-01T05:17:59.576Z,-5.93
2023-03-01T05:20:27.948Z,-5.96
2023-03-01T05:23:01.390Z,-6.00
2023-03-01T05:25:33.913Z,-6.03
2023-03-01T05:28:05.205Z,-6.07
2023-03-01T05:30:33.666Z,-6.08
2023-03-01T05:33:02.504Z,-6.10
2023-03-01T05:35:33.508Z,-6.10
2023-03-01T05:38:02.777Z,-6.14
2023-03-01T05:40:30.636Z,-6.16
2023-03-01T05:42:58.991Z,-6.17
2023-03-01T05:45:28.447Z,-6.18
2023-03-01T05:47:56.720Z,-6.21
2023-03-01T05:50:26.321Z,-6.21
2023-03-01T05:52:59.829Z,-6.24
2023-03-01T05:55:30.451Z,-6.24
2023-03-01T05:58:00.473Z,-6.28
2023-03-01T06:00:29.393Z,-6.29
2023-03-01T06:02:57.587Z,-6.31
2023-03-01T06:05:26.441Z,-6.32
2023-03-01T06:07:54.914Z,-6.33
2023-03-01T06:10:24.403Z,-6.34
2023-03-01T06:12:53.563Z,-6.35
2023-03-01T06:15:21.682Z,-6.36
2023-03-01T06:17:49.587Z,-6.37
2023-03-01T06:20:19.480Z,-6.40
2023-03-01T06:22:48.528Z,-6.41
2023-03-01T06:25:18.481Z,-6.41
2023-03-01T06:27:46.663Z,-6.40
2023-03-01T06:30:17.852Z,-6.38
2023-03-01T06:32:45.890Z,-6.40
2023-03-01T06:35:15.604Z,-6.40
2023-03-01T06:37:43.695Z,-6.37
2023-03-01T06:40:14.302Z,-6.36
2023-03-01T06:42:43.933Z,-6.34
2023-03-01T06:45:12.873Z,-6.32
2023-03-01T06:47:42.021Z,-6.30
2023-03-01T06:50:11.230Z,-6.27
2023-03-01T06:52:39.180Z,-6.23
2023-03-01T06:55:08.621Z,-6.21
2023-03-01T06:57:36.458Z,-6.18
2023-03-01T07:00:05.196Z,-6.15
2023-03-01T07:02:33.302Z,-6.10
2023-03-01T07:05:02.769Z,-6.04
2023-03-01T07:07:30.573Z,-6.01
2023-03-01T07:09:58.326Z,-5.97
2023-03-01T07:12:26.226Z,-5.92
2023-03-01T07:14:53.903Z,-5.88
2023-03-01T07:17:21.832Z,-5.84
2023-03-01T07:19:49.590Z,-5.77
2023-03-01T07:22:19.483Z,-5.71
2023-03-01T07:24:47.255Z,-5.65
2023-03-01T07:27:15.243Z,-5.59
2023-03-01T07:29:43.083Z,-5.51
2023-03-01T07:32:12.586Z,-5.45
2023-03-01T07:34:40.498Z,-5.37
2023-03-01T07:37:08.801Z,-5.34
2023-03-01T07:39:38.020Z,-5.28
2023-03-01T07:42:05.710Z,-5.23
2023-03-01T07:44:35.417Z,-5.16
2023-03-01T07:47:03.221Z,-5.12
2023-03-01T07:49:31.145Z,-5.05
2023-03-01T07:51:59.223Z,-4.96
2023-03-01T07:54:27.285Z,-4.89
2023-03-01T07:56:56.444Z,-4.84
2023-03-01T07:59:24.679Z,-4.76
2023-03-01T08:01:52.600Z,-4.68
2023-03-01T08:04:20.375Z,-4.63
2023-03-01T08:06:48.162Z,-4.56
2023-03-01T08:09:15.935Z,-4.51
2023-03-01T08:11:43.820Z,-4.42
2023-03-01T08:14:13.105Z,-4.36
2023-03-01T08:16:41.094Z,-4.28
2023-03-01T08:19:10.197Z,-4.22
2023-03-01T08:21:38.625Z,-4.12
2023-03-01T08:24:08.010Z,-4.03
2023-03-01T08:26:36.197Z,-3.95
2023-03-01T08:29:05.168Z,-3.85
2023-03-01T08:31:37.629Z,-3.76
2023-03-01T08:34:09.003Z,-3.69
2023-03-01T08:36:39.448Z,-3.63
2023-03-01T08:39:09.007Z,-3.56
2023-03-01T08:41:37.254Z,-3.51
2023-03-01T08:44:05.507Z,-3.41
2023-03-01T08:46:37.755Z,-3.31
2023-03-01T08:49:07.755Z,-3.22
2023-03-01T08:51:37.853Z,-3.11
2023-03-01T08:54:06.067Z,-3.01
2023-03-01T08:56:34.227Z,-2.89
2023-03-01T08:59:02.046Z,-2.81
2023-03-01T09:01:29.898Z,-2.71
2023-03-01T09:03:59.226Z,-2.58
2023-03-01T09:06:27.445Z,-2.47
2023-03-01T09:08:55.748Z,-2.36
2023-03-01T09:11:24.702Z,-2.27
2023-03-01T09:13:53.029Z,-2.19
2023-03-01T09:16:23.348Z,-2.12
2023-03-01T09:18:52.684Z,-2.04
2023-03-01T09:21:37.638Z,-1.97
2023-03-01T09:24:08.195Z,-1.91
2023-03-01T09:26:35.946Z,-1.86
2023-03-01T09:29:04.131Z,-1.81
2023-03-01T09:31:31.939Z,-1.72
2023-03-01T09:33:59.740Z,-1.62
2023-03-01T09:36:29.972Z,-1.53
2023-03-01T09:38:59.624Z,-1.42
2023-03-01T09:41:40.422Z,-1.33
2023-03-01T09:44:17.421Z,-1.24
2023-03-01T09:46:47.121Z,-1.15
2023-03-01T09:49:20.641Z,-1.05
2023-03-01T09:51:57.750Z,-0.92
2023-03-01T09:54:25.819Z,-0.77
2023-03-01T09:57:03.492Z,-0.60
2023-03-01T09:59:37.713Z,-0.45
2023-03-01T10:02:23.717Z,-0.30
2023-03-01T10:04:53.380Z,-0.15
2023-03-01T10:07:34.636Z,0.01
2023-03-01T10:10:06.180Z,0.12
2023-03-01T10:12:38.470Z,0.24
2023-03-01T10:15:13.683Z,0.35
2023-03-01T10:17:47.489Z,0.58
2023-03-01T10:20:22.350Z,0.76
2023-03-01T10:22:53.479Z,0.90
2023-03-01T10:25:45.650Z,0.99
2023-03-01T10:28:19.721Z,1.05
2023-03-01T10:30:47.993Z,1.09
2023-03-01T10:33:19.621Z,1.20
2023-03-01T10:35:48.268Z,1.31
2023-03-01T10:38:18.675Z,1.45
2023-03-01T10:40:54.812Z,1.57
2023-03-01T10:43:23.728Z,1.68
2023-03-01T10:45:51.584Z,1.81
2023-03-01T10:48:22.261Z,1.91
2023-03-01T10:50:52.388Z,2.01
2023-03-01T10:53:27.969Z,2.13
2023-03-01T10:56:01.579Z,2.27
2023-03-01T10:58:30.355Z,2.39
2023-03-01T11:00:59.881Z,2.47
2023-03-01T11:03:30.366Z,2.56
2023-03-01T11:06:01.964Z,2.65
2023-03-01T11:08:38.354Z,2.73
2023-03-01T11:11:15.141Z,2.83
2023-03-01T11:13:52.375Z,2.93
2023-03-01T11:16:26.823Z,2.97
2023-03-01T11:19:03.833Z,3.03
2023-03-01T11:21:35.478Z,3.13
2023-03-01T11:24:10.649Z,3.21
2023-03-01T11:26:42.411Z,3.23
2023-03-01T11:29:34.883Z,3.29
2023-03-01T11:32:11.984Z,3.44
2023-03-01T11:34:45.640Z,3.57
2023-03-01T11:37:25.801Z,3.68
2023-03-01T11:40:05.861Z,3.75
2023-03-01T11:42:46.096Z,3.83
2023-03-01T11:45:15.274Z,3.93
2023-03-01T11:48:05.054Z,4.05
2023-03-01T11:50:41.829Z,4.13
2023-03-01T11:53:33.060Z,4.22
2023-03-01T11:56:17.385Z,4.29
2023-03-01T11:59:10.151Z,4.41
2023-03-01T12:01:51.042Z,4.52
2023-03-01T12:04:53.645Z,4.61
2023-03-01T12:07:29.664Z,4.70
2023-03-01T12:10:19.610Z,4.81
2023-03-01T12:13:00.834Z,4.89
2023-03-01T12:15:44.716Z,4.95
2023-03-01T12:18:36.381Z,4.99
2023-03-01T12:21:16.200Z,5.04
2023-03-01T12:24:19.497Z,5.09
2023-03-01T12:26:53.278Z,5.16
2023-03-01T12:29:28.219Z,5.18
2023-03-01T12:32:29.606Z,5.12
2023-03-01T12:35:14.782Z,5.19
2023-03-01T12:37:56.200Z,5.27
2023-03-01T12:40:43.243Z,5.41
2023-03-01T12:43:24.934Z,5.49
2023-03-01T12:46:06.674Z,5.60
2023-03-01T12:48:44.867Z,5.69
2023-03-01T12:51:16.389Z,5.75
2023-03-01T12:53:48.730Z,5.83
2023-03-01T12:56:21.516Z,5.91
2023-03-01T12:58:59.807Z,5.98
2023-03-01T13:01:37.096Z,6.04
2023-03-01T13:04:14.913Z,6.10
2023-03-01T13:06:47.485Z,6.16
2023-03-01T13:09:20.784Z,6.21
2023-03-01T13:11:48.835Z,6.23
2023-03-01T13:14:39.763Z,6.27
2023-03-01T13:17:41.839Z,6.29
2023-03-01T13:20:16.180Z,6.38
2023-03-01T13:22:54.324Z,6.41
2023-03-01T13:25:27.585Z,6.42
2023-03-01T13:28:58.048Z,6.46
2023-03-01T13:31:59.931Z,6.50
2023-03-01T13:34:54.524Z,6.55
2023-03-01T13:37:30.378Z,6.60
2023-03-01T13:40:07.708Z,6.64
2023-03-01T13:42:56.124Z,6.63
2023-03-01T13:45:40.463Z,6.68
2023-03-01T13:48:12.930Z,6.70
2023-03-01T13:50:53.399Z,6.74
2023-03-01T13:53:24.838Z,6.75
2023-03-01T13:55:58.738Z,6.80
2023-03-01T13:58:29.633Z,6.83
2023-03-01T14:00:59.667Z,6.86
2023-03-01T14:03:28.194Z,6.87
2023-03-01T14:06:13.612Z,6.82
2023-03-01T14:08:43.996Z,6.80
2023-03-01T14:11:50.979Z,6.81
2023-03-01T14:14:34.250Z,6.78
2023-03-01T14:17:12.387Z,6.81
2023-03-01T14:19:42.004Z,6.83
2023-03-01T14:22:21.385Z,6.81
2023-03-01T14:24:51.767Z,6.79
2023-03-01T14:27:20.715Z,6.74
2023-03-01T14:29:57.511Z,6.71
2023-03-01T14:32:28.210Z,6.67
2023-03-01T14:34:56.647Z,6.60
2023-03-01T14:37:28.580Z,6.53
2023-03-01T14:39:58.094Z,6.44
2023-03-01T14:42:30.174Z,6.37
2023-03-01T14:45:00.000Z,6.30
2023-03-01T14:47:30.808Z,6.22
2023-03-01T14:50:02.918Z,6.14
2023-03-01T14:52:37.227Z,6.05
2023-03-01T14:55:09.164Z,5.96
2023-03-01T14:57:37.386Z,5.92
2023-03-01T15:00:08.895Z,5.86
2023-03-01T15:02:37.556Z,5.79
2023-03-01T15:05:08.986Z,5.74
2023-03-01T15:07:43.114Z,5.71
2023-03-01T15:10:21.407Z,5.64
2023-03-01T15:12:49.820Z,5.55
2023-03-01T15:15:40.308Z,5.49
2023-03-01T15:18:17.833Z,5.42
2023-03-01T15:20:46.406Z,5.39
2023-03-01T15:23:24.194Z,5.36
2023-03-01T15:25:58.298Z,5.33
2023-03-01T15:28:28.577Z,5.31
2023-03-01T15:30:59.516Z,5.28
2023-03-01T15:33:39.590Z,5.23
2023-03-01T15:36:33.118Z,5.19
2023-03-01T15:39:04.397Z,5.13
2023-03-01T15:41:34.310Z,5.07
2023-03-01T15:44:16.262Z,5.06
2023-03-01T15:46:48.745Z,5.03
2023-03-01T15:49:33.035Z,4.98
2023-03-01T15:52:01.102Z,4.93
2023-03-01T15:54:30.830Z,4.88
2023-03-01T15:56:58.641Z,4.82
2023-03-01T15:59:26.417Z,4.78
2023-03-01T16:01:54.339Z,4.73
2023-03-01T16:04:24.903Z,4.67
2023-03-01T16:06:57.282Z,4.61
2023-03-01T16:09:25.728Z,4.55
2023-03-01T16:11:55.707Z,4.47
2023-03-01T16:14:23.791Z,4.41
2023-03-01T16:16:51.581Z,4.33
2023-03-01T16:19:19.500Z,4.28
2023-03-01T16:21:47.682Z,4.20
2023-03-01T16:24:16.371Z,4.13
2023-03-01T16:26:44.196Z,4.07
2023-03-01T16:29:13.438Z,4.01
2023-03-01T16:31:41.340Z,3.94
2023-03-01T16:34:09.399Z,3.87
2023-03-01T16:36:37.616Z,3.82
2023-03-01T16:39:05.836Z,3.77
2023-03-01T16:41:34.012Z,3.74
2023-03-01T16:44:02.292Z,3.69
2023-03-01T16:46:31.393Z,3.65
2023-03-01T16:48:59.560Z,3.62
2023-03-01T16:51:27.333Z,3.56
2023-03-01T16:53:55.204Z,3.52
2023-03-01T16:56:22.997Z,3.47
2023-03-01T16:58:50.791Z,3.41
2023-03-01T17:01:20.824Z,3.36
2023-03-01T17:03:51.396Z,3.30
2023-03-01T17:06:21.466Z,3.24
2023-03-01T17:08:49.516Z,3.16
2023-03-01T17:11:20.729Z,3.11
2023-03-01T17:13:48.986Z,3.04
2023-03-01T17:16:19.451Z,2.98
2023-03-01T17:18:47.958Z,2.91
2023-03-01T17:21:17.637Z,2.85
2023-03-01T17:23:47.453Z,2.80
2023-03-01T17:26:15.255Z,2.72
2023-03-01T17:28:44.384Z,2.64
2023-03-01T17:31:12.779Z,2.60
2023-03-01T17:33:40.670Z,2.56
2023-03-01T17:36:08.555Z,2.50
2023-03-01T17:38:38.305Z,2.45
2023-03-01T17:41:06.384Z,2.40
2023-03-01T17:43:35.362Z,2.36
2023-03-01T17:46:03.475Z,2.32
2023-03-01T17:48:31.845Z,2.26
2023-03-01T17:50:59.749Z,2.20
2023-03-01T17:53:27.742Z,2.16
2023-03-01T17:56:03.197Z,2.11
2023-03-01T17:58:31.415Z,2.07
2023-03-01T18:01:09.010Z,2.01
2023-03-01T18:03:36.897Z,1.99
2023-03-01T18:06:12.601Z,1.94
2023-03-01T18:08:40.485Z,1.88
2023-03-01T18:11:09.855Z,1.83
2023-03-01T18:13:38.281Z,1.78
2023-03-01T18:16:07.625Z,1.72
2023-03-01T18:18:35.501Z,1.64
2023-03-01T18:21:04.154Z,1.56
2023-03-01T18:23:33.024Z,1.49
2023-03-01T18:26:01.661Z,1.43
2023-03-01T18:28:31.301Z,1.36
2023-03-01T18:30:59.512Z,1.31
2023-03-01T18:33:28.229Z,1.27
2023-03-01T18:35:56.006Z,1.23
2023-03-01T18:38:24.180Z,1.21
2023-03-01T18:40:52.737Z,1.19
2023-03-01T18:43:20.580Z,1.17
2023-03-01T18:45:50.412Z,1.15
2023-03-01T18:48:18.175Z,1.14
2023-03-01T18:50:46.042Z,1.10
2023-03-01T18:53:14.048Z,1.07
2023-03-01T18:55:42.011Z,1.04
2023-03-01T18:58:09.842Z,1.01
2023-03-01T19:00:37.633Z,0.97
2023-03-01T19:03:06.828Z,0.94
2023-03-01T19:05:34.593Z,0.88
2023-03-01T19:08:02.519Z,0.82
2023-03-01T19:10:31.731Z,0.76
2023-03-01T19:12:59.761Z,0.71
2023-03-01T19:15:27.665Z,0.66
2023-03-01T19:17:55.457Z,0.60
2023-03-01T19:20:24.629Z,0.53
2023-03-01T19:22:52.607Z,0.47
2023-03-01T19:25:20.446Z,0.41
2023-03-01T19:27:49.067Z,0.37
2023-03-01T19:30:17.365Z,0.33
2023-03-01T19:32:45.147Z,0.30
2023-03-01T19:35:13.017Z,0.27
2023-03-01T19:37:42.156Z,0.20
2023-03-01T19:40:10.921Z,0.16
2023-03-01T19:42:38.928Z,0.08
2023-03-01T19:45:07.954Z,0.04
2023-03-01T19:47:35.825Z,-0.03
2023-03-01T19:50:03.724Z,-0.10
2023-03-01T19:52:31.553Z,-0.16
2023-03-01T19:55:08.829Z,-0.21
2023-03-01T19:57:37.089Z,-0.25
2023-03-01T20:00:06.005Z,-0.30
2023-03-01T20:02:40.220Z,-0.33
2023-03-01T20:05:08.593Z,-0.39
2023-03-01T20:07:36.328Z,-0.44
2023-03-01T20:10:06.220Z,-0.51
2023-03-01T20:12:37.052Z,-0.54
2023-03-01T20:15:05.377Z,-0.61
2023-03-01T20:17:33.182Z,-0.67
2023-03-01T20:20:00.996Z,-0.73
2023-03-01T20:22:28.990Z,-0.79
2023-03-01T20:24:56.679Z,-0.83
2023-03-01T20:27:25.879Z,-0.86
2023-03-01T20:29:53.804Z,-0.88
2023-03-01T20:32:21.626Z,-0.92
2023-03-01T20:34:49.830Z,-0.95
2023-03-01T20:37:17.942Z,-1.00
2023-03-01T20:39:45.723Z,-1.05
2023-03-01T20:42:13.550Z,-1.12
2023-03-01T20:44:44.362Z,-1.15
2023-03-01T20:47:12.977Z,-1.18
2023-03-01T20:49:40.804Z,-1.21
2023-03-01T20:52:08.819Z,-1.22
2023-03-01T20:54:37.296Z,-1.24
2023-03-01T20:57:07.438Z,-1.26
2023-03-01T20:59:35.825Z,-1.29
2023-03-01T21:02:05.230Z,-1.30
2023-03-01T21:04:33.206Z,-1.32
2023-03-01T21:07:01.030Z,-1.35
2023-03-01T21:09:28.832Z,-1.37
2023-03-01T21:11:56.696Z,-1.38
2023-03-01T21:14:24.842Z,-1.40
2023-03-01T21:16:52.726Z,-1.43
2023-03-01T21:19:24.037Z,-1.46
2023-03-01T21:21:53.580Z,-1.48
2023-03-01T21:24:21.418Z,-1.49
2023-03-01T21:26:49.222Z,-1.52
2023-03-01T21:29:17.214Z,-1.53
2023-03-01T21:31:45.011Z,-1.55
2023-03-01T21:34:13.702Z,-1.57
2023-03-01T21:36:43.399Z,-1.61
2023-03-01T21:39:11.912Z,-1.65
2023-03-01T21:41:39.751Z,-1.69
2023-03-01T21:44:07.856Z,-1.72
2023-03-01T21:46:37.754Z,-1.74
2023-03-01T21:49:07.195Z,-1.77
2023-03-01T21:51:36.523Z,-1.80
2023-03-01T21:54:06.773Z,-1.80
2023-03-01T21:56:38.956Z,-1.81
2023-03-01T21:59:08.957Z,-1.82
2023-03-01T22:01:36.720Z,-1.82
2023-03-01T22:04:05.021Z,-1.82
2023-03-01T22:06:38.216Z,-1.83
2023-03-01T22:09:09.559Z,-1.82
2023-03-01T22:11:41.260Z,-1.84
2023-03-01T22:14:13.316Z,-1.84
2023-03-01T22:16:43.821Z,-1.86
2023-03-01T22:19:12.406Z,-1.90
2023-03-01T22:21:41.923Z,-1.92
2023-03-01T22:24:12.142Z,-1.98
2023-03-01T22:26:42.119Z,-2.01
2023-03-01T22:29:13.274Z,-2.05
2023-03-01T22:31:41.960Z,-2.06
2023-03-01T22:34:10.670Z,-2.07
2023-03-01T22:36:39.213Z,-2.09
2023-03-01T22:39:07.688Z,-2.11
2023-03-01T22:41:41.300Z,-2.10
2023-03-01T22:44:09.163Z,-2.12
2023-03-01T22:46:37.306Z,-2.14
2023-03-01T22:49:05.954Z,-2.16
2023-03-01T22:51:37.345Z,-2.17
2023-03-01T22:54:05.812Z,-2.17
2023-03-01T22:56:37.542Z,-2.18
2023-03-01T22:59:08.617Z,-2.18
2023-03-01T23:01:36.681Z,-2.21
2023-03-01T23:06:50.530Z,-2.22
2023-03-01T23:09:20.005Z,-2.22
2023-03-01T23:11:47.850Z,-2.22
2023-03-01T23:14:16.224Z,-2.22
2023-03-01T23:16:44.061Z,-2.20
2023-03-01T23:19:12.122Z,-2.21
2023-03-01T23:21:46.354Z,-2.22
2023-03-01T23:24:15.249Z,-2.22
2023-03-01T23:26:43.094Z,-2.23
2023-03-01T23:29:10.979Z,-2.23
2023-03-01T23:31:38.880Z,-2.23
2023-03-01T23:34:06.752Z,-2.23
2023-03-01T23:36:35.823Z,-2.22
2023-03-01T23:39:07.603Z,-2.19
2023-03-01T23:41:36.216Z,-2.19
2023-03-01T23:44:05.715Z,-2.19
2023-03-01T23:46:36.083Z,-2.19
2023-03-01T23:49:04.621Z,-2.21
2023-03-01T23:51:32.487Z,-2.23
2023-03-01T23:54:05.179Z,-2.26
2023-03-01T23:56:35.989Z,-2.29
2023-03-01T23:59:06.210Z,-2.33
